createdAt,value
2023-04-18T00:01:19.190Z,9.60
2023-04-18T00:03:48.834Z,8.13
2023-04-18T00:06:17.219Z,8.50
2023-04-18T00:08:45.497Z,8.35
2023-04-18T00:11:13.604Z,8.38
2023-04-18T00:13:47.390Z,7.78
2023-04-18T00:16:15.642Z,9.13
2023-04-18T00:18:43.751Z,8.63
2023-04-18T00:21:13.490Z,8.40
2023-04-18T00:23:41.765Z,8.52
2023-04-18T00:26:10.109Z,8.10
2023-04-18T00:28:38.205Z,8.32
2023-04-18T00:31:06.534Z,8.85
2023-04-18T00:33:35.967Z,9.05
2023-04-18T00:36:04.457Z,8.10
2023-04-18T00:38:33.923Z,8.90
2023-04-18T00:41:02.226Z,7.75
2023-04-18T00:43:30.466Z,7.75
2023-04-18T00:46:01.543Z,7.95
2023-04-18T00:48:30.883Z,8.30
2023-04-18T00:51:00.373Z,8.25
2023-04-18T00:53:29.045Z,8.48
2023-04-18T00:55:58.971Z,8.50
2023-04-18T00:58:27.662Z,8.50
2023-04-18T01:00:55.848Z,8.45
2023-04-18T01:03:27.424Z,8.30
2023-04-18T01:05:57.537Z,8.52
2023-04-18T01:08:26.253Z,8.20
2023-04-18T01:10:54.423Z,8.25
2023-04-18T01:13:26.804Z,8.20
2023-04-18T01:15:55.776Z,8.07
2023-04-18T01:18:24.386Z,8.10
2023-04-18T01:20:54.663Z,8.02
2023-04-18T01:23:22.870Z,7.75
2023-04-18T01:25:52.313Z,7.97
2023-04-18T01:28:22.836Z,8.50
2023-04-18T01:30:51.128Z,8.52
2023-04-18T01:33:19.177Z,8.38
2023-04-18T01:35:47.334Z,8.70
2023-04-18T01:38:18.625Z,8.57
2023-04-18T01:40:46.864Z,7.75
2023-04-18T01:43:16.443Z,8.35
2023-04-18T01:45:44.495Z,8.30
2023-04-18T01:48:12.589Z,7.97
2023-04-18T01:50:40.667Z,8.00
2023-04-18T01:53:08.735Z,7.82
2023-04-18T01:55:36.739Z,8.65
2023-04-18T01:58:04.766Z,8.32
2023-04-18T02:00:34.320Z,8.00
2023-04-18T02:03:02.567Z,8.00
2023-04-18T02:05:30.769Z,8.32
2023-04-18T02:07:59.277Z,8.02
2023-04-18T02:10:27.366Z,8.32
2023-04-18T02:12:55.409Z,9.25
2023-04-18T02:15:25.671Z,8.50
2023-04-18T02:17:55.502Z,7.65
2023-04-18T02:20:23.841Z,8.73
2023-04-18T02:22:51.876Z,7.90
2023-04-18T02:25:23.572Z,8.20
2023-04-18T02:27:51.851Z,7.80
2023-04-18T02:30:23.475Z,8.50
2023-04-18T02:32:53.296Z,8.48
2023-04-18T02:35:23.051Z,8.93
2023-04-18T02:37:51.232Z,8.70
2023-04-18T02:40:20.939Z,7.70
2023-04-18T02:42:49.150Z,8.25
2023-04-18T02:45:17.201Z,7.75
2023-04-18T02:47:54.536Z,8.73
2023-04-18T02:50:27.083Z,8.02
2023-04-18T02:52:55.835Z,7.68
2023-04-18T02:55:26.984Z,8.70
2023-04-18T02:57:55.169Z,9.20
2023-04-18T03:00:23.355Z,8.43
2023-04-18T03:02:53.306Z,8.23
2023-04-18T03:05:23.140Z,8.32
2023-04-18T03:07:52.592Z,7.65
2023-04-18T03:10:23.263Z,8.15
2023-04-18T03:12:51.331Z,9.15
2023-04-18T03:15:19.668Z,8.57
2023-04-18T03:17:47.721Z,8.48
2023-04-18T03:20:15.789Z,9.15
2023-04-18T03:22:44.000Z,8.73
2023-04-18T03:25:13.478Z,8.20
2023-04-18T03:27:42.937Z,8.85
2023-04-18T03:30:11.511Z,8.43
2023-04-18T03:32:39.655Z,8.20
2023-04-18T03:35:07.975Z,8.10
2023-04-18T03:37:36.250Z,8.68
2023-04-18T03:40:05.469Z,8.77
2023-04-18T03:42:34.899Z,9.38
2023-04-18T03:45:06.586Z,8.50
2023-04-18T03:47:34.651Z,8.50
2023-04-18T03:50:02.951Z,8.85
2023-04-18T03:52:31.014Z,8.95
2023-04-18T03:54:59.069Z,9.30
2023-04-18T03:57:27.323Z,9.82
2023-04-18T03:59:56.707Z,8.48
2023-04-18T04:02:24.963Z,9.63
2023-04-18T04:04:53.262Z,8.90
2023-04-18T04:07:21.355Z,8.48
2023-04-18T04:09:49.622Z,9.25
2023-04-18T04:12:17.936Z,9.55
2023-04-18T04:14:46.013Z,9.48
2023-04-18T04:17:15.593Z,8.85
2023-04-18T04:19:43.759Z,8.93
2023-04-18T04:22:11.864Z,9.05
2023-04-18T04:24:40.488Z,8.90
2023-04-18T04:27:08.615Z,9.95
2023-04-18T04:29:38.728Z,9.73
2023-04-18T04:32:07.215Z,9.00
2023-04-18T04:34:36.855Z,9.23
2023-04-18T04:37:04.956Z,9.35
2023-04-18T04:39:33.048Z,8.90
2023-04-18T04:42:03.942Z,8.63
2023-04-18T04:44:32.142Z,8.68
2023-04-18T04:47:00.335Z,9.07
2023-04-18T04:49:28.414Z,8.35
2023-04-18T04:51:59.590Z,8.82
2023-04-18T04:54:29.525Z,8.82
2023-04-18T04:56:57.848Z,9.30
2023-04-18T04:59:25.991Z,8.60
2023-04-18T05:01:54.256Z,9.07
2023-04-18T05:04:22.425Z,8.82
2023-04-18T05:06:50.736Z,9.95
2023-04-18T05:09:20.387Z,8.80
2023-04-18T05:11:49.426Z,9.15
2023-04-18T05:14:17.887Z,9.15
2023-04-18T05:16:46.072Z,8.85
2023-04-18T05:19:14.572Z,9.93
2023-04-18T05:21:42.655Z,9.60
2023-04-18T05:24:11.163Z,9.20
2023-04-18T05:26:40.973Z,9.45
2023-04-18T05:29:08.944Z,9.48
2023-04-18T05:31:37.037Z,9.38
2023-04-18T05:34:05.258Z,8.98
2023-04-18T05:36:33.485Z,9.68
2023-04-18T05:39:01.568Z,8.75
2023-04-18T05:41:29.711Z,8.63
2023-04-18T05:44:17.162Z,9.35
2023-04-18T05:46:45.463Z,9.38
2023-04-18T05:49:13.932Z,8.98
2023-04-18T05:51:42.078Z,8.18
2023-04-18T05:54:10.153Z,9.07
2023-04-18T05:56:45.881Z,9.80
2023-04-18T05:59:15.536Z,9.40
2023-04-18T06:01:44.271Z,8.70
2023-04-18T06:04:12.508Z,9.80
2023-04-18T06:06:40.822Z,9.30
2023-04-18T06:09:09.185Z,9.05
2023-04-18T06:11:37.171Z,9.35
2023-04-18T06:14:05.242Z,9.07
2023-04-18T06:16:34.685Z,9.48
2023-04-18T06:19:03.420Z,9.48
2023-04-18T06:21:31.602Z,9.75
2023-04-18T06:24:01.358Z,9.73
2023-04-18T06:26:30.225Z,9.10
2023-04-18T06:28:58.223Z,9.05
2023-04-18T06:31:26.396Z,9.50
2023-04-18T06:33:55.929Z,9.02
2023-04-18T06:36:24.236Z,8.10
2023-04-18T06:38:52.295Z,8.68
2023-04-18T06:41:20.524Z,7.80
2023-04-18T06:44:02.894Z,9.13
2023-04-18T06:46:32.637Z,8.20
2023-04-18T06:49:02.229Z,7.97
2023-04-18T06:51:30.285Z,8.10
2023-04-18T06:53:58.357Z,8.15
2023-04-18T06:56:27.061Z,7.22
2023-04-18T06:58:55.085Z,7.68
2023-04-18T07:01:23.270Z,7.70
2023-04-18T07:03:54.338Z,7.28
2023-04-18T07:06:23.864Z,7.43
2023-04-18T07:09:00.056Z,7.47
2023-04-18T07:11:28.586Z,7.40
2023-04-18T07:13:56.686Z,7.05
2023-04-18T07:16:24.846Z,7.43
2023-04-18T07:18:52.986Z,6.35
2023-04-18T07:21:21.045Z,7.25
2023-04-18T07:23:50.678Z,6.63
2023-04-18T07:26:19.101Z,6.97
2023-04-18T07:28:47.197Z,6.82
2023-04-18T07:31:16.668Z,6.97
2023-04-18T07:33:47.268Z,6.55
2023-04-18T07:36:15.490Z,6.47
2023-04-18T07:38:44.428Z,5.85
2023-04-18T07:41:17.104Z,6.53
2023-04-18T07:43:45.799Z,6.68
2023-04-18T07:46:14.125Z,6.35
2023-04-18T07:48:44.566Z,7.53
2023-04-18T07:51:12.952Z,6.75
2023-04-18T07:53:44.636Z,6.80
2023-04-18T07:56:14.544Z,6.63
2023-04-18T07:58:44.066Z,6.07
2023-04-18T08:01:14.415Z,6.50
2023-04-18T08:03:42.960Z,6.00
2023-04-18T08:06:14.090Z,6.65
2023-04-18T08:08:42.183Z,7.00
2023-04-18T08:11:10.253Z,6.63
2023-04-18T08:13:38.411Z,6.72
2023-04-18T08:16:08.180Z,6.30
2023-04-18T08:18:36.988Z,6.30
2023-04-18T08:21:05.664Z,6.90
2023-04-18T08:23:33.731Z,6.55
2023-04-18T08:26:01.910Z,6.28
2023-04-18T08:28:29.986Z,6.70
2023-04-18T08:30:58.172Z,6.30
2023-04-18T08:33:28.442Z,6.00
2023-04-18T08:35:56.624Z,7.07
2023-04-18T08:38:24.743Z,7.15
2023-04-18T08:40:52.771Z,6.05
2023-04-18T08:43:20.913Z,6.75
2023-04-18T08:45:49.149Z,6.25
2023-04-18T08:48:19.918Z,6.72
2023-04-18T08:50:49.459Z,6.53
2023-04-18T08:53:18.569Z,6.45
2023-04-18T08:55:47.818Z,5.78
2023-04-18T08:58:22.460Z,5.55
2023-04-18T09:00:54.587Z,5.60
2023-04-18T09:03:39.792Z,6.00
2023-04-18T09:06:12.507Z,5.53
2023-04-18T09:08:44.758Z,5.60
2023-04-18T09:11:26.551Z,5.78
2023-04-18T09:13:56.422Z,5.47
2023-04-18T09:16:25.004Z,5.43
2023-04-18T09:19:13.980Z,5.13
2023-04-18T09:21:46.336Z,5.32
2023-04-18T09:24:24.394Z,4.93
2023-04-18T09:26:54.081Z,5.57
2023-04-18T09:29:23.462Z,5.53
2023-04-18T09:32:00.059Z,5.07
2023-04-18T09:34:28.826Z,5.30
2023-04-18T09:37:12.149Z,5.32
2023-04-18T09:39:41.344Z,5.68
2023-04-18T09:42:10.572Z,5.35
2023-04-18T09:44:39.415Z,5.50
2023-04-18T09:47:08.504Z,5.43
2023-04-18T09:49:36.653Z,5.57
2023-04-18T09:52:08.687Z,5.68
2023-04-18T09:54:40.518Z,5.80
2023-04-18T09:57:12.984Z,5.27
2023-04-18T09:59:47.739Z,5.15
2023-04-18T10:02:22.150Z,5.65
2023-04-18T10:04:51.876Z,5.50
2023-04-18T10:07:21.325Z,5.20
2023-04-18T10:09:51.139Z,5.50
2023-04-18T10:12:19.957Z,5.88
2023-04-18T10:14:50.663Z,5.55
2023-04-18T10:17:22.349Z,5.30
2023-04-18T10:20:07.255Z,5.95
2023-04-18T10:22:36.694Z,5.78
2023-04-18T10:25:07.367Z,5.60
2023-04-18T10:28:00.163Z,5.38
2023-04-18T10:30:51.561Z,5.72
2023-04-18T10:33:32.151Z,5.95
2023-04-18T10:36:03.638Z,5.65
2023-04-18T10:38:32.536Z,5.10
2023-04-18T10:41:25.025Z,5.72
2023-04-18T10:44:22.458Z,6.30
2023-04-18T10:47:22.582Z,5.97
2023-04-18T10:49:58.908Z,6.60
2023-04-18T10:52:28.634Z,6.15
2023-04-18T10:55:04.986Z,6.28
2023-04-18T10:57:41.599Z,6.28
2023-04-18T11:00:12.694Z,6.80
2023-04-18T11:02:41.548Z,6.30
2023-04-18T11:05:10.897Z,6.38
2023-04-18T11:07:41.169Z,6.50
2023-04-18T11:10:10.980Z,6.97
2023-04-18T11:12:41.839Z,6.72
2023-04-18T11:15:12.639Z,6.80
2023-04-18T11:17:41.332Z,6.72
2023-04-18T11:20:11.602Z,7.45
2023-04-18T11:22:47.586Z,7.55
2023-04-18T11:25:16.404Z,6.55
2023-04-18T11:27:47.176Z,7.55
2023-04-18T11:30:16.644Z,7.40
2023-04-18T11:32:45.071Z,6.82
2023-04-18T11:35:14.859Z,7.47
2023-04-18T11:37:45.497Z,7.25
2023-04-18T11:40:14.830Z,7.00
2023-04-18T11:42:43.345Z,7.65
2023-04-18T11:45:14.220Z,8.02
2023-04-18T11:47:43.940Z,8.18
2023-04-18T11:50:14.118Z,8.57
2023-04-18T11:52:43.668Z,8.98
2023-04-18T11:55:14.219Z,7.95
2023-04-18T11:57:42.717Z,7.53
2023-04-18T12:00:13.693Z,8.02
2023-04-18T12:02:43.750Z,7.80
2023-04-18T12:05:14.524Z,8.43
2023-04-18T12:07:45.912Z,8.82
2023-04-18T12:10:26.077Z,9.13
2023-04-18T12:12:56.261Z,8.82
2023-04-18T12:15:28.301Z,9.52
2023-04-18T12:18:00.357Z,8.87
2023-04-18T12:20:36.476Z,9.90
2023-04-18T12:23:05.005Z,9.40
2023-04-18T12:25:33.698Z,9.65
2023-04-18T12:28:04.619Z,9.82
2023-04-18T12:30:37.682Z,9.70
2023-04-18T12:33:06.739Z,10.40
2023-04-18T12:35:34.839Z,10.77
2023-04-18T12:38:03.956Z,10.32
2023-04-18T12:40:33.559Z,10.25
2023-04-18T12:43:03.530Z,10.15
2023-04-18T12:45:33.794Z,10.27
2023-04-18T12:48:01.935Z,10.75
2023-04-18T12:50:30.101Z,10.63
2023-04-18T12:53:01.189Z,10.75
2023-04-18T12:55:29.604Z,11.40
2023-04-18T12:57:58.232Z,10.68
2023-04-18T13:00:30.632Z,11.70
2023-04-18T13:03:00.904Z,11.40
2023-04-18T13:05:33.684Z,11.27
2023-04-18T13:10:34.034Z,11.82
2023-04-18T13:13:02.167Z,11.32
2023-04-18T13:15:30.392Z,10.60
2023-04-18T13:18:04.434Z,11.10
2023-04-18T13:20:33.342Z,11.80
2023-04-18T13:23:03.012Z,12.13
2023-04-18T13:25:33.433Z,11.73
2023-04-18T13:28:01.729Z,11.73
2023-04-18T13:30:29.949Z,11.75
2023-04-18T13:32:59.479Z,12.52
2023-04-18T13:35:27.625Z,11.27
2023-04-18T13:37:56.125Z,11.52
2023-04-18T13:40:25.329Z,11.80
2023-04-18T13:42:53.430Z,11.77
2023-04-18T13:45:21.725Z,11.80
2023-04-18T13:47:49.905Z,11.48
2023-04-18T13:50:20.346Z,11.98
2023-04-18T13:52:49.370Z,12.70
2023-04-18T13:55:17.945Z,12.40
2023-04-18T13:57:46.012Z,11.93
2023-04-18T14:00:15.346Z,11.43
2023-04-18T14:02:43.771Z,10.93
2023-04-18T14:05:12.242Z,11.18
2023-04-18T14:07:42.038Z,11.35
2023-04-18T14:10:10.860Z,11.38
2023-04-18T14:12:40.132Z,11.50
2023-04-18T14:15:09.654Z,10.73
2023-04-18T14:17:37.826Z,10.32
2023-04-18T14:20:07.898Z,11.15
2023-04-18T14:22:36.079Z,10.05
2023-04-18T14:25:06.438Z,11.07
2023-04-18T14:27:34.592Z,11.15
2023-04-18T14:30:02.676Z,10.38
2023-04-18T14:32:31.100Z,10.23
2023-04-18T14:34:59.958Z,9.52
2023-04-18T14:37:27.998Z,9.93
2023-04-18T14:39:56.152Z,10.07
2023-04-18T14:42:25.890Z,10.35
2023-04-18T14:44:54.042Z,10.10
2023-04-18T14:47:24.341Z,10.30
2023-04-18T14:49:52.623Z,9.70
2023-04-18T14:52:20.731Z,9.95
2023-04-18T14:54:49.176Z,9.70
2023-04-18T14:57:17.281Z,9.70
2023-04-18T14:59:46.696Z,9.68
2023-04-18T15:02:15.005Z,9.70
2023-04-18T15:04:43.322Z,9.90
2023-04-18T15:07:11.494Z,9.57
2023-04-18T15:09:39.701Z,9.88
2023-04-18T15:12:08.170Z,9.57
2023-04-18T15:14:39.957Z,9.90
2023-04-18T15:17:09.467Z,9.52
2023-04-18T15:19:37.679Z,9.80
2023-04-18T15:22:05.775Z,9.43
2023-04-18T15:24:33.903Z,9.65
2023-04-18T15:27:02.038Z,10.23
2023-04-18T15:29:30.426Z,8.90
2023-04-18T15:31:58.555Z,9.30
2023-04-18T15:34:28.033Z,9.20
2023-04-18T15:36:56.119Z,9.38
2023-04-18T15:39:24.212Z,9.32
2023-04-18T15:41:54.503Z,8.80
2023-04-18T15:44:22.700Z,9.15
2023-04-18T15:46:51.218Z,9.63
2023-04-18T15:49:19.241Z,8.95
2023-04-18T15:51:48.725Z,9.05
2023-04-18T15:54:17.067Z,9.25
2023-04-18T15:56:45.389Z,9.20
2023-04-18T15:59:13.730Z,8.82
2023-04-18T16:01:44.443Z,8.57
2023-04-18T16:04:14.357Z,8.83
2023-04-18T16:06:43.327Z,8.77
2023-04-18T16:09:13.105Z,9.02
2023-04-18T16:11:41.548Z,8.23
2023-04-18T16:14:09.757Z,8.52
2023-04-18T16:16:37.896Z,9.00
2023-04-18T16:19:06.298Z,8.23
2023-04-18T16:21:36.678Z,8.75
2023-04-18T16:24:04.875Z,9.25
2023-04-18T16:26:34.450Z,8.80
2023-04-18T16:29:02.642Z,9.20
2023-04-18T16:31:30.761Z,8.52
2023-04-18T16:33:58.843Z,9.75
2023-04-18T16:36:27.306Z,8.52
2023-04-18T16:38:55.412Z,8.45
2023-04-18T16:41:23.616Z,8.30
2023-04-18T16:43:53.890Z,8.82
2023-04-18T16:46:22.022Z,8.85
2023-04-18T16:48:51.864Z,9.10
2023-04-18T16:51:20.656Z,7.18
2023-04-18T16:53:49.219Z,8.48
2023-04-18T16:56:17.360Z,8.82
2023-04-18T16:58:45.469Z,8.75
2023-04-18T17:01:15.007Z,8.57
2023-04-18T17:03:43.235Z,8.00
2023-04-18T17:06:11.536Z,8.60
2023-04-18T17:08:39.685Z,8.57
2023-04-18T17:11:07.813Z,8.57
2023-04-18T17:13:36.353Z,8.73
2023-04-18T17:16:04.536Z,8.73
2023-04-18T17:18:34.133Z,9.18
2023-04-18T17:21:02.259Z,8.40
2023-04-18T17:23:32.705Z,8.57
2023-04-18T17:26:01.116Z,8.40
2023-04-18T17:28:29.148Z,8.25
2023-04-18T17:30:58.572Z,8.25
2023-04-18T17:33:29.384Z,7.90
2023-04-18T17:35:58.947Z,8.10
2023-04-18T17:38:27.015Z,7.57
2023-04-18T17:41:00.332Z,8.15
2023-04-18T17:43:28.637Z,8.10
2023-04-18T17:45:57.118Z,8.27
2023-04-18T17:48:25.935Z,8.00
2023-04-18T17:50:54.039Z,8.10
2023-04-18T17:53:23.623Z,7.63
2023-04-18T17:55:52.405Z,8.52
2023-04-18T17:58:21.059Z,8.05
2023-04-18T18:00:49.318Z,7.85
2023-04-18T18:03:18.445Z,7.90
2023-04-18T18:05:48.996Z,8.50
2023-04-18T18:08:17.293Z,7.18
2023-04-18T18:10:48.108Z,8.18
2023-04-18T18:13:16.219Z,8.18
2023-04-18T18:15:44.272Z,8.15
2023-04-18T18:18:12.420Z,8.38
2023-04-18T18:20:42.740Z,8.07
2023-04-18T18:23:11.141Z,8.02
2023-04-18T18:25:39.124Z,7.53
2023-04-18T18:28:08.753Z,8.05
2023-04-18T18:30:38.034Z,7.90
2023-04-18T18:33:11.610Z,8.45
2023-04-18T18:35:40.105Z,7.82
2023-04-18T18:38:08.534Z,7.55
2023-04-18T18:40:36.608Z,8.20
2023-04-18T18:43:04.886Z,7.95
2023-04-18T18:45:36.971Z,7.47
2023-04-18T18:48:07.366Z,7.40
2023-04-18T18:50:38.541Z,6.85
2023-04-18T18:53:10.088Z,6.82
2023-04-18T18:55:38.107Z,6.63
2023-04-18T18:58:07.916Z,7.53
2023-04-18T19:00:37.333Z,6.45
2023-04-18T19:03:05.767Z,6.10
2023-04-18T19:05:33.957Z,6.75
2023-04-18T19:08:04.130Z,6.25
2023-04-18T19:10:32.266Z,6.70
2023-04-18T19:13:01.294Z,6.45
2023-04-18T19:15:29.374Z,6.38
2023-04-18T19:17:58.920Z,6.97
2023-04-18T19:20:28.817Z,6.32
2023-04-18T19:22:57.378Z,6.28
2023-04-18T19:25:27.791Z,6.68
2023-04-18T19:27:55.909Z,6.68
2023-04-18T19:30:24.969Z,6.88
2023-04-18T19:32:53.201Z,6.40
2023-04-18T19:35:23.480Z,6.88
2023-04-18T19:37:51.547Z,6.95
2023-04-18T19:40:19.692Z,6.55
2023-04-18T19:42:47.792Z,6.78
2023-04-18T19:45:16.141Z,6.50
2023-04-18T19:47:45.244Z,7.00
2023-04-18T19:50:13.308Z,7.07
2023-04-18T19:52:42.792Z,7.35
2023-04-18T19:55:11.676Z,6.80
2023-04-18T19:57:41.408Z,6.95
2023-04-18T20:00:12.189Z,6.90
2023-04-18T20:02:42.327Z,7.10
2023-04-18T20:05:12.611Z,6.55
2023-04-18T20:07:42.687Z,7.22
2023-04-18T20:10:11.448Z,7.10
2023-04-18T20:12:39.533Z,7.65
2023-04-18T20:15:08.813Z,7.18
2023-04-18T20:17:36.941Z,6.88
2023-04-18T20:20:08.250Z,6.97
2023-04-18T20:22:37.652Z,6.80
2023-04-18T20:25:08.695Z,6.88
2023-04-18T20:27:36.881Z,7.70
2023-04-18T20:30:05.849Z,7.82
2023-04-18T20:32:34.664Z,7.43
2023-04-18T20:35:04.399Z,8.15
2023-04-18T20:37:36.768Z,7.53
2023-04-18T20:40:10.766Z,7.57
2023-04-18T20:42:42.696Z,7.38
2023-04-18T20:45:14.167Z,7.78
2023-04-18T20:47:42.507Z,7.38
2023-04-18T20:50:11.389Z,7.70
2023-04-18T20:52:42.678Z,7.75
2023-04-18T20:55:12.612Z,7.30
2023-04-18T20:57:40.851Z,7.80
2023-04-18T21:00:10.681Z,7.35
2023-04-18T21:02:39.020Z,7.15
2023-04-18T21:05:07.864Z,7.10
2023-04-18T21:07:36.113Z,7.28
2023-04-18T21:10:04.353Z,7.22
2023-04-18T21:12:33.826Z,7.40
2023-04-18T21:15:02.218Z,7.63
2023-04-18T21:17:30.372Z,6.90
2023-04-18T21:19:58.494Z,7.55
2023-04-18T21:22:26.734Z,7.40
2023-04-18T21:24:54.877Z,7.68
2023-04-18T21:27:22.975Z,7.82
2023-04-18T21:29:52.569Z,7.63
2023-04-18T21:32:21.119Z,7.03
2023-04-18T21:34:49.192Z,7.10
2023-04-18T21:37:17.355Z,7.55
2023-04-18T21:39:45.479Z,7.43
2023-04-18T21:42:13.526Z,8.07
2023-04-18T21:44:41.666Z,7.53
2023-04-18T21:47:11.127Z,8.05
2023-04-18T21:49:39.213Z,7.30
2023-04-18T21:52:07.700Z,8.65
2023-04-18T21:54:35.774Z,7.90
2023-04-18T21:57:05.965Z,7.72
2023-04-18T21:59:34.197Z,7.50
2023-04-18T22:02:02.366Z,7.30
2023-04-18T22:04:34.580Z,7.72
2023-04-18T22:07:02.761Z,7.45
2023-04-18T22:09:36.270Z,7.85
2023-04-18T22:12:05.188Z,8.32
2023-04-18T22:14:33.236Z,7.55
2023-04-18T22:17:03.332Z,8.05
2023-04-18T22:19:31.533Z,8.07
2023-04-18T22:22:00.979Z,7.53
2023-04-18T22:24:29.104Z,8.05
2023-04-18T22:26:57.146Z,8.02
2023-04-18T22:29:25.335Z,8.38
2023-04-18T22:31:53.404Z,7.97
2023-04-18T22:34:21.544Z,8.43
2023-04-18T22:36:49.716Z,8.07
2023-04-18T22:39:19.311Z,8.30
2023-04-18T22:41:50.096Z,8.35
2023-04-18T22:44:18.137Z,8.35
2023-04-18T22:46:48.191Z,7.57
2023-04-18T22:49:18.011Z,7.57
2023-04-18T22:51:46.567Z,8.15
2023-04-18T22:54:14.880Z,7.55
2023-04-18T22:56:44.505Z,8.07
2023-04-18T22:59:12.693Z,7.68
2023-04-18T23:01:40.796Z,7.75
2023-04-18T23:04:09.196Z,8.20
2023-04-18T23:06:39.846Z,7.32
2023-04-18T23:09:09.510Z,7.97
2023-04-18T23:11:37.644Z,7.97
2023-04-18T23:14:08.645Z,8.05
2023-04-18T23:16:36.882Z,7.78
2023-04-18T23:19:05.086Z,8.88
2023-04-18T23:21:33.250Z,8.32
2023-04-18T23:24:01.504Z,7.60
2023-04-18T23:26:29.689Z,7.53
2023-04-18T23:28:57.862Z,7.53
2023-04-18T23:31:27.369Z,8.27
2023-04-18T23:33:56.662Z,7.93
2023-04-18T23:36:27.823Z,7.72
2023-04-18T23:38:58.858Z,8.00
2023-04-18T23:41:27.082Z,8.15
2023-04-18T23:43:55.131Z,8.32
2023-04-18T23:46:23.235Z,8.40
2023-04-18T23:48:52.990Z,8.25
2023-04-18T23:51:21.089Z,8.93
2023-04-18T23:53:49.447Z,8.07
2023-04-18T23:56:17.608Z,8.55
2023-04-18T23:58:45.714Z,8.80
